sensor_id;sensor_type;location;lat;lon;timestamp;P1;durP1;ratioP1;P2;durP2;ratioP2
20271;SDS011;10295;49.812;9.866;2023-02-28T00:02:25;12.10;;;5.10;;
20271;SDS011;10295;49.812;9.866;2023-02-28T00:04:53;12.63;;;4.70;;
20271;SDS011;10295;49.812;9.866;2023-02-28T00:07:27;12.80;;;4.73;;
20271;SDS011;10295;49.812;9.866;2023-02-28T00:09:54;10.03;;;4.60;;
20271;SDS011;10295;49.812;9.866;2023-02-28T00:12:21;12.13;;;4.83;;
20271;SDS011;10295;49.812;9.866;2023-02-28T00:14:49;10.20;;;4.60;;
20271;SDS011;10295;49.812;9.866;2023-02-28T00:17:16;10.10;;;4.67;;
20271;SDS011;10295;49.812;9.866;2023-02-28T00:19:48;13.50;;;4.90;;
20271;SDS011;10295;49.812;9.866;2023-02-28T00:22:15;10.47;;;4.60;;
20271;SDS011;10295;49.812;9.866;2023-02-28T00:24:43;10.90;;;4.90;;
20271;SDS011;10295;49.812;9.866;2023-02-28T00:27:10;15.23;;;5.27;;
20271;SDS011;10295;49.812;9.866;2023-02-28T00:29:38;12.53;;;4.80;;
20271;SDS011;10295;49.812;9.866;2023-02-28T00:32:06;11.83;;;5.27;;
20271;SDS011;10295;49.812;9.866;2023-02-28T00:34:33;14.10;;;5.30;;
20271;SDS011;10295;49.812;9.866;2023-02-28T00:37:07;15.53;;;5.43;;
20271;SDS011;10295;49.812;9.866;2023-02-28T00:39:35;12.07;;;4.97;;
20271;SDS011;10295;49.812;9.866;2023-02-28T00:42:02;11.70;;;5.00;;
20271;SDS011;10295;49.812;9.866;2023-02-28T00:44:30;9.67;;;4.83;;
20271;SDS011;10295;49.812;9.866;2023-02-28T00:46:57;12.23;;;5.20;;
20271;SDS011;10295;49.812;9.866;2023-02-28T00:49:25;11.37;;;5.13;;
20271;SDS011;10295;49.812;9.866;2023-02-28T00:51:53;11.77;;;5.67;;
20271;SDS011;10295;49.812;9.866;2023-02-28T00:54:21;12.87;;;4.93;;
20271;SDS011;10295;49.812;9.866;2023-02-28T00:56:49;10.90;;;5.10;;
20271;SDS011;10295;49.812;9.866;2023-02-28T00:59:16;12.67;;;5.83;;
20271;SDS011;10295;49.812;9.866;2023-02-28T01:01:44;12.63;;;5.73;;
20271;SDS011;10295;49.812;9.866;2023-02-28T01:04:11;14.60;;;5.73;;
20271;SDS011;10295;49.812;9.866;2023-02-28T01:06:39;11.47;;;5.10;;
20271;SDS011;10295;49.812;9.866;2023-02-28T01:09:06;14.90;;;5.00;;
20271;SDS011;10295;49.812;9.866;2023-02-28T01:11:34;10.70;;;5.37;;
20271;SDS011;10295;49.812;9.866;2023-02-28T01:14:01;10.47;;;5.10;;
20271;SDS011;10295;49.812;9.866;2023-02-28T01:16:30;13.60;;;5.90;;
20271;SDS011;10295;49.812;9.866;2023-02-28T01:18:57;12.47;;;5.83;;
20271;SDS011;10295;49.812;9.866;2023-02-28T01:21:24;12.03;;;5.67;;
20271;SDS011;10295;49.812;9.866;2023-02-28T01:23:52;11.10;;;5.43;;
20271;SDS011;10295;49.812;9.866;2023-02-28T01:26:22;13.63;;;5.40;;
20271;SDS011;10295;49.812;9.866;2023-02-28T01:28:50;13.37;;;5.53;;
20271;SDS011;10295;49.812;9.866;2023-02-28T01:31:18;11.87;;;5.77;;
20271;SDS011;10295;49.812;9.866;2023-02-28T01:33:45;15.17;;;5.67;;
20271;SDS011;10295;49.812;9.866;2023-02-28T01:36:23;12.20;;;5.93;;
20271;SDS011;10295;49.812;9.866;2023-02-28T01:38:50;14.33;;;6.70;;
20271;SDS011;10295;49.812;9.866;2023-02-28T01:46:15;11.83;;;5.40;;
20271;SDS011;10295;49.812;9.866;2023-02-28T01:48:47;11.83;;;5.50;;
20271;SDS011;10295;49.812;9.866;2023-02-28T01:51:17;13.07;;;6.10;;
20271;SDS011;10295;49.812;9.866;2023-02-28T01:53:46;11.00;;;5.50;;
20271;SDS011;10295;49.812;9.866;2023-02-28T01:56:17;11.63;;;5.60;;
20271;SDS011;10295;49.812;9.866;2023-02-28T01:58:48;14.60;;;5.93;;
20271;SDS011;10295;49.812;9.866;2023-02-28T02:01:16;12.37;;;6.20;;
20271;SDS011;10295;49.812;9.866;2023-02-28T02:03:51;10.53;;;5.27;;
20271;SDS011;10295;49.812;9.866;2023-02-28T02:06:27;13.30;;;5.47;;
20271;SDS011;10295;49.812;9.866;2023-02-28T02:08:56;11.73;;;5.93;;
20271;SDS011;10295;49.812;9.866;2023-02-28T02:11:23;13.17;;;5.80;;
20271;SDS011;10295;49.812;9.866;2023-02-28T02:14:30;12.90;;;5.90;;
20271;SDS011;10295;49.812;9.866;2023-02-28T02:27:07;13.40;;;5.40;;
20271;SDS011;10295;49.812;9.866;2023-02-28T02:37:36;11.70;;;5.47;;
20271;SDS011;10295;49.812;9.866;2023-02-28T02:45:09;14.97;;;6.07;;
20271;SDS011;10295;49.812;9.866;2023-02-28T02:47:37;11.33;;;5.47;;
20271;SDS011;10295;49.812;9.866;2023-02-28T02:50:06;12.13;;;5.90;;
20271;SDS011;10295;49.812;9.866;2023-02-28T02:52:36;12.93;;;5.87;;
20271;SDS011;10295;49.812;9.866;2023-02-28T02:55:05;13.80;;;6.03;;
20271;SDS011;10295;49.812;9.866;2023-02-28T02:57:35;14.40;;;6.20;;
20271;SDS011;10295;49.812;9.866;2023-02-28T03:00:04;11.80;;;5.40;;
20271;SDS011;10295;49.812;9.866;2023-02-28T03:02:35;12.43;;;5.70;;
20271;SDS011;10295;49.812;9.866;2023-02-28T03:05:04;12.83;;;6.10;;
20271;SDS011;10295;49.812;9.866;2023-02-28T03:07:33;13.30;;;5.93;;
20271;SDS011;10295;49.812;9.866;2023-02-28T03:10:00;13.13;;;5.83;;
20271;SDS011;10295;49.812;9.866;2023-02-28T03:12:31;12.67;;;5.93;;
20271;SDS011;10295;49.812;9.866;2023-02-28T03:20:15;13.37;;;5.87;;
20271;SDS011;10295;49.812;9.866;2023-02-28T03:33:11;15.00;;;6.33;;
20271;SDS011;10295;49.812;9.866;2023-02-28T03:35:43;13.63;;;6.00;;
20271;SDS011;10295;49.812;9.866;2023-02-28T03:38:15;14.67;;;7.17;;
20271;SDS011;10295;49.812;9.866;2023-02-28T03:40:46;17.50;;;6.87;;
20271;SDS011;10295;49.812;9.866;2023-02-28T03:43:15;15.20;;;6.87;;
20271;SDS011;10295;49.812;9.866;2023-02-28T03:45:44;15.87;;;7.30;;
20271;SDS011;10295;49.812;9.866;2023-02-28T03:48:14;15.53;;;7.00;;
20271;SDS011;10295;49.812;9.866;2023-02-28T03:50:45;14.10;;;6.90;;
20271;SDS011;10295;49.812;9.866;2023-02-28T03:53:34;13.33;;;6.87;;
20271;SDS011;10295;49.812;9.866;2023-02-28T04:01:12;16.70;;;7.10;;
20271;SDS011;10295;49.812;9.866;2023-02-28T04:03:42;17.43;;;7.20;;
20271;SDS011;10295;49.812;9.866;2023-02-28T04:06:13;14.87;;;6.77;;
20271;SDS011;10295;49.812;9.866;2023-02-28T04:08:41;14.23;;;6.73;;
20271;SDS011;10295;49.812;9.866;2023-02-28T04:11:16;16.53;;;6.67;;
20271;SDS011;10295;49.812;9.866;2023-02-28T04:13:43;15.47;;;7.33;;
20271;SDS011;10295;49.812;9.866;2023-02-28T04:16:12;15.37;;;6.93;;
20271;SDS011;10295;49.812;9.866;2023-02-28T04:18:57;14.10;;;6.97;;
20271;SDS011;10295;49.812;9.866;2023-02-28T04:21:28;14.07;;;6.77;;
20271;SDS011;10295;49.812;9.866;2023-02-28T04:23:56;13.73;;;6.73;;
20271;SDS011;10295;49.812;9.866;2023-02-28T04:26:30;13.27;;;6.67;;
20271;SDS011;10295;49.812;9.866;2023-02-28T04:28:58;14.10;;;6.70;;
20271;SDS011;10295;49.812;9.866;2023-02-28T04:31:25;15.33;;;6.87;;
20271;SDS011;10295;49.812;9.866;2023-02-28T04:33:53;14.90;;;6.57;;
20271;SDS011;10295;49.812;9.866;2023-02-28T04:36:20;15.13;;;6.47;;
20271;SDS011;10295;49.812;9.866;2023-02-28T04:38:49;14.23;;;7.03;;
20271;SDS011;10295;49.812;9.866;2023-02-28T04:41:16;13.57;;;6.83;;
20271;SDS011;10295;49.812;9.866;2023-02-28T04:43:43;17.33;;;6.20;;
20271;SDS011;10295;49.812;9.866;2023-02-28T04:46:10;14.57;;;6.90;;
20271;SDS011;10295;49.812;9.866;2023-02-28T04:48:38;13.73;;;6.40;;
20271;SDS011;10295;49.812;9.866;2023-02-28T04:51:07;14.93;;;6.97;;
20271;SDS011;10295;49.812;9.866;2023-02-28T04:53:36;12.97;;;6.13;;
20271;SDS011;10295;49.812;9.866;2023-02-28T04:56:03;15.10;;;6.53;;
20271;SDS011;10295;49.812;9.866;2023-02-28T04:58:31;16.43;;;6.40;;
20271;SDS011;10295;49.812;9.866;2023-02-28T05:01:02;14.20;;;6.23;;
20271;SDS011;10295;49.812;9.866;2023-02-28T05:03:29;15.20;;;6.33;;
20271;SDS011;10295;49.812;9.866;2023-02-28T05:05:56;13.07;;;5.80;;
20271;SDS011;10295;49.812;9.866;2023-02-28T05:08:24;14.27;;;6.37;;
20271;SDS011;10295;49.812;9.866;2023-02-28T05:10:51;15.10;;;6.37;;
20271;SDS011;10295;49.812;9.866;2023-02-28T05:13:18;15.30;;;6.40;;
20271;SDS011;10295;49.812;9.866;2023-02-28T05:15:45;15.03;;;6.10;;
20271;SDS011;10295;49.812;9.866;2023-02-28T05:18:12;12.37;;;5.77;;
20271;SDS011;10295;49.812;9.866;2023-02-28T05:20:39;15.23;;;5.77;;
20271;SDS011;10295;49.812;9.866;2023-02-28T05:23:08;12.10;;;5.33;;
20271;SDS011;10295;49.812;9.866;2023-02-28T05:25:35;14.10;;;6.10;;
20271;SDS011;10295;49.812;9.866;2023-02-28T05:28:02;14.47;;;5.57;;
20271;SDS011;10295;49.812;9.866;2023-02-28T05:30:30;10.93;;;4.47;;
20271;SDS011;10295;49.812;9.866;2023-02-28T05:32:58;11.20;;;5.20;;
20271;SDS011;10295;49.812;9.866;2023-02-28T05:35:25;13.40;;;5.53;;
20271;SDS011;10295;49.812;9.866;2023-02-28T05:37:52;12.13;;;4.90;;
20271;SDS011;10295;49.812;9.866;2023-02-28T05:40:20;13.90;;;4.90;;
20271;SDS011;10295;49.812;9.866;2023-02-28T05:42:47;11.80;;;5.47;;
20271;SDS011;10295;49.812;9.866;2023-02-28T05:45:14;12.33;;;4.93;;
20271;SDS011;10295;49.812;9.866;2023-02-28T05:47:41;11.73;;;5.23;;
20271;SDS011;10295;49.812;9.866;2023-02-28T05:50:08;12.27;;;5.00;;
20271;SDS011;10295;49.812;9.866;2023-02-28T05:52:36;12.30;;;5.07;;
20271;SDS011;10295;49.812;9.866;2023-02-28T05:55:04;11.90;;;5.23;;
20271;SDS011;10295;49.812;9.866;2023-02-28T05:57:31;12.30;;;5.40;;
20271;SDS011;10295;49.812;9.866;2023-02-28T05:59:58;12.47;;;5.00;;
20271;SDS011;10295;49.812;9.866;2023-02-28T06:02:25;11.63;;;4.83;;
20271;SDS011;10295;49.812;9.866;2023-02-28T06:04:52;12.13;;;5.03;;
20271;SDS011;10295;49.812;9.866;2023-02-28T06:07:19;11.23;;;5.20;;
20271;SDS011;10295;49.812;9.866;2023-02-28T06:09:48;10.33;;;4.97;;
20271;SDS011;10295;49.812;9.866;2023-02-28T06:12:15;11.90;;;5.00;;
20271;SDS011;10295;49.812;9.866;2023-02-28T06:14:43;11.20;;;4.97;;
20271;SDS011;10295;49.812;9.866;2023-02-28T06:17:10;11.10;;;4.90;;
20271;SDS011;10295;49.812;9.866;2023-02-28T06:19:37;12.07;;;4.67;;
20271;SDS011;10295;49.812;9.866;2023-02-28T06:22:05;11.70;;;4.67;;
20271;SDS011;10295;49.812;9.866;2023-02-28T06:24:32;12.83;;;5.10;;
20271;SDS011;10295;49.812;9.866;2023-02-28T06:26:59;11.80;;;4.50;;
20271;SDS011;10295;49.812;9.866;2023-02-28T06:29:31;11.47;;;4.63;;
20271;SDS011;10295;49.812;9.866;2023-02-28T06:31:59;11.03;;;4.63;;
20271;SDS011;10295;49.812;9.866;2023-02-28T06:34:26;10.93;;;4.53;;
20271;SDS011;10295;49.812;9.866;2023-02-28T06:36:53;10.10;;;4.43;;
20271;SDS011;10295;49.812;9.866;2023-02-28T06:39:20;11.03;;;4.50;;
20271;SDS011;10295;49.812;9.866;2023-02-28T06:41:48;10.70;;;4.97;;
20271;SDS011;10295;49.812;9.866;2023-02-28T06:44:21;14.17;;;4.90;;
20271;SDS011;10295;49.812;9.866;2023-02-28T06:46:48;10.50;;;4.53;;
20271;SDS011;10295;49.812;9.866;2023-02-28T06:49:16;10.13;;;4.43;;
20271;SDS011;10295;49.812;9.866;2023-02-28T06:51:43;11.23;;;4.83;;
20271;SDS011;10295;49.812;9.866;2023-02-28T06:54:11;11.40;;;4.50;;
20271;SDS011;10295;49.812;9.866;2023-02-28T06:56:39;14.13;;;4.70;;
20271;SDS011;10295;49.812;9.866;2023-02-28T06:59:06;10.70;;;4.60;;
20271;SDS011;10295;49.812;9.866;2023-02-28T07:01:33;12.20;;;4.90;;
20271;SDS011;10295;49.812;9.866;2023-02-28T07:04:00;12.00;;;4.87;;
20271;SDS011;10295;49.812;9.866;2023-02-28T07:06:28;9.60;;;4.50;;
20271;SDS011;10295;49.812;9.866;2023-02-28T07:08:55;11.57;;;4.20;;
20271;SDS011;10295;49.812;9.866;2023-02-28T07:11:23;11.87;;;5.10;;
20271;SDS011;10295;49.812;9.866;2023-02-28T07:13:52;11.63;;;4.53;;
20271;SDS011;10295;49.812;9.866;2023-02-28T07:16:20;10.67;;;4.37;;
20271;SDS011;10295;49.812;9.866;2023-02-28T07:18:47;11.53;;;4.20;;
20271;SDS011;10295;49.812;9.866;2023-02-28T07:21:14;11.53;;;4.57;;
20271;SDS011;10295;49.812;9.866;2023-02-28T07:23:42;12.10;;;4.20;;
20271;SDS011;10295;49.812;9.866;2023-02-28T07:26:13;10.10;;;3.97;;
20271;SDS011;10295;49.812;9.866;2023-02-28T07:28:42;10.00;;;3.80;;
20271;SDS011;10295;49.812;9.866;2023-02-28T07:31:09;10.67;;;4.33;;
20271;SDS011;10295;49.812;9.866;2023-02-28T07:33:37;10.50;;;4.17;;
20271;SDS011;10295;49.812;9.866;2023-02-28T07:36:06;8.27;;;3.60;;
20271;SDS011;10295;49.812;9.866;2023-02-28T07:38:34;12.70;;;4.37;;
20271;SDS011;10295;49.812;9.866;2023-02-28T07:41:02;9.70;;;4.13;;
20271;SDS011;10295;49.812;9.866;2023-02-28T07:43:30;9.70;;;4.40;;
20271;SDS011;10295;49.812;9.866;2023-02-28T07:46:02;11.23;;;4.60;;
20271;SDS011;10295;49.812;9.866;2023-02-28T07:48:29;10.53;;;4.20;;
20271;SDS011;10295;49.812;9.866;2023-02-28T07:50:56;11.80;;;4.50;;
20271;SDS011;10295;49.812;9.866;2023-02-28T07:53:24;13.30;;;5.17;;
20271;SDS011;10295;49.812;9.866;2023-02-28T07:55:54;11.53;;;4.23;;
20271;SDS011;10295;49.812;9.866;2023-02-28T07:58:22;13.77;;;5.80;;
20271;SDS011;10295;49.812;9.866;2023-02-28T08:00:49;16.30;;;4.83;;
20271;SDS011;10295;49.812;9.866;2023-02-28T08:03:17;12.80;;;5.20;;
20271;SDS011;10295;49.812;9.866;2023-02-28T08:05:45;12.43;;;4.97;;
20271;SDS011;10295;49.812;9.866;2023-02-28T08:08:12;11.93;;;5.13;;
20271;SDS011;10295;49.812;9.866;2023-02-28T08:10:39;12.43;;;5.07;;
20271;SDS011;10295;49.812;9.866;2023-02-28T08:13:06;12.90;;;5.43;;
20271;SDS011;10295;49.812;9.866;2023-02-28T08:15:34;11.17;;;4.70;;
20271;SDS011;10295;49.812;9.866;2023-02-28T08:18:01;12.00;;;5.50;;
20271;SDS011;10295;49.812;9.866;2023-02-28T08:20:28;12.70;;;5.40;;
20271;SDS011;10295;49.812;9.866;2023-02-28T08:22:55;12.93;;;5.37;;
20271;SDS011;10295;49.812;9.866;2023-02-28T08:25:22;12.33;;;5.13;;
20271;SDS011;10295;49.812;9.866;2023-02-28T08:27:51;10.80;;;5.30;;
20271;SDS011;10295;49.812;9.866;2023-02-28T08:30:19;10.77;;;5.20;;
20271;SDS011;10295;49.812;9.866;2023-02-28T08:32:46;11.93;;;5.80;;
20271;SDS011;10295;49.812;9.866;2023-02-28T08:35:13;12.97;;;5.90;;
20271;SDS011;10295;49.812;9.866;2023-02-28T08:37:40;11.93;;;5.80;;
20271;SDS011;10295;49.812;9.866;2023-02-28T08:40:08;11.83;;;5.10;;
20271;SDS011;10295;49.812;9.866;2023-02-28T08:42:35;11.20;;;5.57;;
20271;SDS011;10295;49.812;9.866;2023-02-28T08:45:02;15.77;;;5.83;;
20271;SDS011;10295;49.812;9.866;2023-02-28T08:47:29;12.50;;;5.90;;
20271;SDS011;10295;49.812;9.866;2023-02-28T08:49:57;11.43;;;5.70;;
20271;SDS011;10295;49.812;9.866;2023-02-28T08:52:24;10.90;;;5.27;;
20271;SDS011;10295;49.812;9.866;2023-02-28T08:54:51;12.00;;;5.83;;
20271;SDS011;10295;49.812;9.866;2023-02-28T08:57:18;14.93;;;5.70;;
20271;SDS011;10295;49.812;9.866;2023-02-28T08:59:45;12.87;;;5.30;;
20271;SDS011;10295;49.812;9.866;2023-02-28T09:02:13;14.13;;;5.77;;
20271;SDS011;10295;49.812;9.866;2023-02-28T09:04:41;12.67;;;5.93;;
20271;SDS011;10295;49.812;9.866;2023-02-28T09:07:08;16.10;;;6.73;;
20271;SDS011;10295;49.812;9.866;2023-02-28T09:09:35;13.13;;;6.03;;
20271;SDS011;10295;49.812;9.866;2023-02-28T09:12:02;11.57;;;5.53;;
20271;SDS011;10295;49.812;9.866;2023-02-28T09:14:30;15.43;;;6.80;;
20271;SDS011;10295;49.812;9.866;2023-02-28T09:16:57;10.50;;;4.63;;
20271;SDS011;10295;49.812;9.866;2023-02-28T09:19:24;13.07;;;6.30;;
20271;SDS011;10295;49.812;9.866;2023-02-28T09:21:52;13.03;;;5.67;;
20271;SDS011;10295;49.812;9.866;2023-02-28T09:24:19;12.70;;;6.20;;
20271;SDS011;10295;49.812;9.866;2023-02-28T09:26:46;14.77;;;6.43;;
20271;SDS011;10295;49.812;9.866;2023-02-28T09:29:30;15.20;;;6.30;;
20271;SDS011;10295;49.812;9.866;2023-02-28T09:31:57;14.30;;;6.03;;
20271;SDS011;10295;49.812;9.866;2023-02-28T09:34:25;11.27;;;5.47;;
20271;SDS011;10295;49.812;9.866;2023-02-28T09:36:53;13.70;;;5.90;;
20271;SDS011;10295;49.812;9.866;2023-02-28T09:39:21;18.23;;;5.60;;
20271;SDS011;10295;49.812;9.866;2023-02-28T09:41:52;11.63;;;4.67;;
20271;SDS011;10295;49.812;9.866;2023-02-28T09:49:42;14.23;;;6.00;;
20271;SDS011;10295;49.812;9.866;2023-02-28T09:52:16;16.83;;;6.00;;
20271;SDS011;10295;49.812;9.866;2023-02-28T09:54:45;16.40;;;5.17;;
20271;SDS011;10295;49.812;9.866;2023-02-28T10:03:04;11.67;;;5.17;;
20271;SDS011;10295;49.812;9.866;2023-02-28T10:05:11;13.33;;;4.97;;
20271;SDS011;10295;49.812;9.866;2023-02-28T10:10:13;16.53;;;6.07;;
20271;SDS011;10295;49.812;9.866;2023-02-28T10:12:42;12.80;;;6.10;;
20271;SDS011;10295;49.812;9.866;2023-02-28T10:15:13;19.77;;;6.80;;
20271;SDS011;10295;49.812;9.866;2023-02-28T10:17:42;13.63;;;6.27;;
20271;SDS011;10295;49.812;9.866;2023-02-28T10:20:25;13.27;;;5.13;;
20271;SDS011;10295;49.812;9.866;2023-02-28T10:23:04;14.50;;;6.67;;
20271;SDS011;10295;49.812;9.866;2023-02-28T10:25:35;12.00;;;4.57;;
20271;SDS011;10295;49.812;9.866;2023-02-28T10:28:12;11.17;;;5.13;;
20271;SDS011;10295;49.812;9.866;2023-02-28T10:30:40;14.60;;;6.03;;
20271;SDS011;10295;49.812;9.866;2023-02-28T10:33:13;13.73;;;6.80;;
20271;SDS011;10295;49.812;9.866;2023-02-28T10:35:44;24.97;;;6.30;;
20271;SDS011;10295;49.812;9.866;2023-02-28T10:38:16;11.97;;;5.73;;
20271;SDS011;10295;49.812;9.866;2023-02-28T10:40:43;14.17;;;6.30;;
20271;SDS011;10295;49.812;9.866;2023-02-28T10:46:01;14.20;;;6.47;;
20271;SDS011;10295;49.812;9.866;2023-02-28T10:48:43;12.63;;;5.50;;
20271;SDS011;10295;49.812;9.866;2023-02-28T10:51:12;14.87;;;7.00;;
20271;SDS011;10295;49.812;9.866;2023-02-28T10:56:26;13.93;;;6.33;;
20271;SDS011;10295;49.812;9.866;2023-02-28T11:01:24;14.83;;;7.00;;
20271;SDS011;10295;49.812;9.866;2023-02-28T11:03:52;14.30;;;5.97;;
20271;SDS011;10295;49.812;9.866;2023-02-28T11:08:50;11.97;;;4.30;;
20271;SDS011;10295;49.812;9.866;2023-02-28T11:11:18;14.87;;;6.30;;
20271;SDS011;10295;49.812;9.866;2023-02-28T11:13:47;15.00;;;6.30;;
20271;SDS011;10295;49.812;9.866;2023-02-28T11:16:16;13.47;;;6.77;;
20271;SDS011;10295;49.812;9.866;2023-02-28T11:18:47;20.10;;;7.97;;
20271;SDS011;10295;49.812;9.866;2023-02-28T11:21:16;14.60;;;6.87;;
20271;SDS011;10295;49.812;9.866;2023-02-28T11:23:44;20.80;;;8.53;;
20271;SDS011;10295;49.812;9.866;2023-02-28T11:26:12;19.10;;;9.27;;
20271;SDS011;10295;49.812;9.866;2023-02-28T11:28:40;16.87;;;7.30;;
20271;SDS011;10295;49.812;9.866;2023-02-28T11:33:53;14.53;;;7.47;;
20271;SDS011;10295;49.812;9.866;2023-02-28T11:36:27;15.97;;;7.10;;
20271;SDS011;10295;49.812;9.866;2023-02-28T11:38:55;16.83;;;5.97;;
20271;SDS011;10295;49.812;9.866;2023-02-28T11:44:03;17.10;;;6.60;;
20271;SDS011;10295;49.812;9.866;2023-02-28T11:49:49;15.30;;;6.77;;
20271;SDS011;10295;49.812;9.866;2023-02-28T11:51:49;13.57;;;7.10;;
20271;SDS011;10295;49.812;9.866;2023-02-28T11:59:51;17.53;;;7.17;;
20271;SDS011;10295;49.812;9.866;2023-02-28T12:02:26;13.37;;;7.03;;
20271;SDS011;10295;49.812;9.866;2023-02-28T12:08:16;20.97;;;5.40;;
20271;SDS011;10295;49.812;9.866;2023-02-28T12:23:21;13.90;;;6.27;;
20271;SDS011;10295;49.812;9.866;2023-02-28T12:28:30;14.47;;;6.20;;
20271;SDS011;10295;49.812;9.866;2023-02-28T12:31:04;12.70;;;6.17;;
20271;SDS011;10295;49.812;9.866;2023-02-28T12:33:38;12.30;;;5.50;;
20271;SDS011;10295;49.812;9.866;2023-02-28T12:36:09;14.00;;;7.00;;
20271;SDS011;10295;49.812;9.866;2023-02-28T12:38:43;14.63;;;6.80;;
20271;SDS011;10295;49.812;9.866;2023-02-28T12:41:16;12.47;;;4.83;;
20271;SDS011;10295;49.812;9.866;2023-02-28T12:43:45;11.33;;;5.40;;
20271;SDS011;10295;49.812;9.866;2023-02-28T12:46:17;16.20;;;6.73;;
20271;SDS011;10295;49.812;9.866;2023-02-28T12:48:48;13.63;;;6.60;;
20271;SDS011;10295;49.812;9.866;2023-02-28T12:51:17;12.20;;;5.73;;
20271;SDS011;10295;49.812;9.866;2023-02-28T12:59:00;12.63;;;6.67;;
20271;SDS011;10295;49.812;9.866;2023-02-28T13:04:20;15.63;;;7.50;;
20271;SDS011;10295;49.812;9.866;2023-02-28T13:09:18;11.50;;;5.13;;
20271;SDS011;10295;49.812;9.866;2023-02-28T13:11:46;14.57;;;5.93;;
20271;SDS011;10295;49.812;9.866;2023-02-28T13:14:25;14.23;;;6.13;;
20271;SDS011;10295;49.812;9.866;2023-02-28T13:20:18;13.77;;;6.50;;
20271;SDS011;10295;49.812;9.866;2023-02-28T13:24:53;14.40;;;6.60;;
20271;SDS011;10295;49.812;9.866;2023-02-28T13:29:51;14.57;;;7.30;;
20271;SDS011;10295;49.812;9.866;2023-02-28T13:32:20;14.23;;;7.10;;
20271;SDS011;10295;49.812;9.866;2023-02-28T13:39:46;14.60;;;6.60;;
20271;SDS011;10295;49.812;9.866;2023-02-28T13:47:34;14.03;;;7.10;;
20271;SDS011;10295;49.812;9.866;2023-02-28T14:03:44;16.80;;;7.73;;
20271;SDS011;10295;49.812;9.866;2023-02-28T14:08:46;14.07;;;7.17;;
20271;SDS011;10295;49.812;9.866;2023-02-28T14:11:25;16.23;;;7.20;;
20271;SDS011;10295;49.812;9.866;2023-02-28T14:13:52;17.60;;;8.07;;
20271;SDS011;10295;49.812;9.866;2023-02-28T14:16:23;13.00;;;5.83;;
20271;SDS011;10295;49.812;9.866;2023-02-28T14:18:56;15.87;;;7.53;;
20271;SDS011;10295;49.812;9.866;2023-02-28T14:21:26;15.27;;;6.73;;
20271;SDS011;10295;49.812;9.866;2023-02-28T14:31:45;12.97;;;5.87;;
20271;SDS011;10295;49.812;9.866;2023-02-28T14:36:49;17.00;;;7.90;;
20271;SDS011;10295;49.812;9.866;2023-02-28T14:39:19;15.63;;;7.27;;
20271;SDS011;10295;49.812;9.866;2023-02-28T14:41:46;13.53;;;6.20;;
20271;SDS011;10295;49.812;9.866;2023-02-28T14:44:15;15.53;;;7.50;;
20271;SDS011;10295;49.812;9.866;2023-02-28T14:46:43;16.27;;;6.60;;
20271;SDS011;10295;49.812;9.866;2023-02-28T14:49:21;14.63;;;6.73;;
20271;SDS011;10295;49.812;9.866;2023-02-28T14:51:50;14.20;;;6.57;;
20271;SDS011;10295;49.812;9.866;2023-02-28T14:54:27;15.63;;;6.90;;
20271;SDS011;10295;49.812;9.866;2023-02-28T14:56:55;17.77;;;7.60;;
20271;SDS011;10295;49.812;9.866;2023-02-28T14:59:24;15.40;;;6.43;;
20271;SDS011;10295;49.812;9.866;2023-02-28T15:01:52;15.27;;;6.67;;
20271;SDS011;10295;49.812;9.866;2023-02-28T15:04:34;15.90;;;7.40;;
20271;SDS011;10295;49.812;9.866;2023-02-28T15:07:12;14.50;;;6.90;;
20271;SDS011;10295;49.812;9.866;2023-02-28T15:09:40;17.13;;;7.30;;
20271;SDS011;10295;49.812;9.866;2023-02-28T15:12:07;15.20;;;7.77;;
20271;SDS011;10295;49.812;9.866;2023-02-28T15:14:37;15.27;;;7.27;;
20271;SDS011;10295;49.812;9.866;2023-02-28T15:17:06;19.13;;;7.47;;
20271;SDS011;10295;49.812;9.866;2023-02-28T15:19:36;14.17;;;5.83;;
20271;SDS011;10295;49.812;9.866;2023-02-28T15:22:15;18.53;;;7.53;;
20271;SDS011;10295;49.812;9.866;2023-02-28T15:24:45;19.60;;;7.03;;
20271;SDS011;10295;49.812;9.866;2023-02-28T15:27:15;15.27;;;7.17;;
20271;SDS011;10295;49.812;9.866;2023-02-28T15:29:46;14.60;;;5.60;;
20271;SDS011;10295;49.812;9.866;2023-02-28T15:32:24;15.23;;;6.43;;
20271;SDS011;10295;49.812;9.866;2023-02-28T15:34:52;16.03;;;6.83;;
20271;SDS011;10295;49.812;9.866;2023-02-28T15:37:27;14.93;;;7.57;;
20271;SDS011;10295;49.812;9.866;2023-02-28T15:39:57;17.93;;;7.60;;
20271;SDS011;10295;49.812;9.866;2023-02-28T15:42:27;15.77;;;7.00;;
20271;SDS011;10295;49.812;9.866;2023-02-28T15:44:55;14.73;;;6.93;;
20271;SDS011;10295;49.812;9.866;2023-02-28T15:47:24;16.13;;;7.97;;
20271;SDS011;10295;49.812;9.866;2023-02-28T15:49:53;15.90;;;6.97;;
20271;SDS011;10295;49.812;9.866;2023-02-28T15:52:39;14.73;;;7.20;;
20271;SDS011;10295;49.812;9.866;2023-02-28T15:57:48;16.60;;;6.87;;
20271;SDS011;10295;49.812;9.866;2023-02-28T16:00:18;18.23;;;7.73;;
20271;SDS011;10295;49.812;9.866;2023-02-28T16:02:45;15.00;;;6.97;;
20271;SDS011;10295;49.812;9.866;2023-02-28T16:05:24;14.93;;;7.17;;
20271;SDS011;10295;49.812;9.866;2023-02-28T16:07:57;16.67;;;7.47;;
20271;SDS011;10295;49.812;9.866;2023-02-28T16:10:25;16.83;;;7.33;;
20271;SDS011;10295;49.812;9.866;2023-02-28T16:12:54;17.73;;;7.83;;
20271;SDS011;10295;49.812;9.866;2023-02-28T16:15:26;17.93;;;7.07;;
20271;SDS011;10295;49.812;9.866;2023-02-28T16:17:55;18.40;;;7.70;;
20271;SDS011;10295;49.812;9.866;2023-02-28T16:20:24;18.87;;;7.90;;
20271;SDS011;10295;49.812;9.866;2023-02-28T16:22:52;15.80;;;7.50;;
20271;SDS011;10295;49.812;9.866;2023-02-28T16:25:23;19.03;;;8.13;;
20271;SDS011;10295;49.812;9.866;2023-02-28T16:27:50;20.80;;;8.70;;
20271;SDS011;10295;49.812;9.866;2023-02-28T16:30:21;17.23;;;8.00;;
20271;SDS011;10295;49.812;9.866;2023-02-28T16:32:49;20.00;;;8.23;;
20271;SDS011;10295;49.812;9.866;2023-02-28T16:35:17;18.30;;;7.93;;
20271;SDS011;10295;49.812;9.866;2023-02-28T16:37:44;23.67;;;8.37;;
20271;SDS011;10295;49.812;9.866;2023-02-28T16:40:19;21.90;;;7.97;;
20271;SDS011;10295;49.812;9.866;2023-02-28T16:42:47;16.57;;;7.17;;
20271;SDS011;10295;49.812;9.866;2023-02-28T16:45:16;18.33;;;7.80;;
20271;SDS011;10295;49.812;9.866;2023-02-28T16:47:45;21.97;;;8.60;;
20271;SDS011;10295;49.812;9.866;2023-02-28T16:50:14;22.03;;;8.30;;
20271;SDS011;10295;49.812;9.866;2023-02-28T16:52:42;20.40;;;8.10;;
20271;SDS011;10295;49.812;9.866;2023-02-28T16:55:09;17.60;;;8.17;;
20271;SDS011;10295;49.812;9.866;2023-02-28T16:57:37;26.27;;;8.70;;
20271;SDS011;10295;49.812;9.866;2023-02-28T17:00:06;25.73;;;9.57;;
20271;SDS011;10295;49.812;9.866;2023-02-28T17:02:34;23.53;;;10.83;;
20271;SDS011;10295;49.812;9.866;2023-02-28T17:05:01;28.27;;;13.90;;
20271;SDS011;10295;49.812;9.866;2023-02-28T17:07:29;31.47;;;14.30;;
20271;SDS011;10295;49.812;9.866;2023-02-28T17:09:56;27.73;;;14.70;;
20271;SDS011;10295;49.812;9.866;2023-02-28T17:12:23;29.23;;;14.17;;
20271;SDS011;10295;49.812;9.866;2023-02-28T17:14:50;29.97;;;14.70;;
20271;SDS011;10295;49.812;9.866;2023-02-28T17:17:18;30.97;;;14.50;;
20271;SDS011;10295;49.812;9.866;2023-02-28T17:19:46;23.90;;;11.77;;
20271;SDS011;10295;49.812;9.866;2023-02-28T17:22:14;20.77;;;10.17;;
20271;SDS011;10295;49.812;9.866;2023-02-28T17:24:41;18.67;;;9.50;;
20271;SDS011;10295;49.812;9.866;2023-02-28T17:27:10;19.33;;;9.07;;
20271;SDS011;10295;49.812;9.866;2023-02-28T17:29:38;25.53;;;10.47;;